createdAt,value
2022-08-11T00:01:25.801Z,8.00
2022-08-11T00:03:52.164Z,7.00
2022-08-11T00:06:18.676Z,8.00
2022-08-11T00:08:45.093Z,9.67
2022-08-11T00:11:11.506Z,8.00
2022-08-11T00:13:38.772Z,8.25
2022-08-11T00:16:05.146Z,6.67
2022-08-11T00:18:31.544Z,7.67
2022-08-11T00:20:57.922Z,7.00
2022-08-11T00:26:18.430Z,8.00
2022-08-11T00:28:44.847Z,6.33
2022-08-11T00:31:12.135Z,7.75
2022-08-11T00:33:44.393Z,7.00
2022-08-11T00:36:12.270Z,8.00
2022-08-11T00:41:22.440Z,7.00
2022-08-11T00:43:49.683Z,6.25
2022-08-11T00:46:16.057Z,7.33
2022-08-11T00:48:42.405Z,7.00
2022-08-11T00:51:09.693Z,7.00
2022-08-11T00:56:21.161Z,7.00
2022-08-11T00:58:50.759Z,9.00
2022-08-11T01:01:20.478Z,8.50
2022-08-11T01:03:46.931Z,9.67
2022-08-11T01:06:13.291Z,6.33
2022-08-11T01:11:37.508Z,9.75
2022-08-11T01:14:03.955Z,7.67
2022-08-11T01:16:30.326Z,8.00
2022-08-11T01:18:56.706Z,5.00
2022-08-11T01:21:23.078Z,7.00
2022-08-11T01:26:33.636Z,7.67
2022-08-11T01:29:00.888Z,9.25
2022-08-11T01:31:27.259Z,5.00
2022-08-11T01:33:53.678Z,9.33
2022-08-11T01:36:20.127Z,8.00
2022-08-11T01:41:33.197Z,6.00
2022-08-11T01:43:59.635Z,9.00
2022-08-11T01:46:26.020Z,7.33
2022-08-11T01:48:52.433Z,8.00
2022-08-11T01:51:18.809Z,5.67
2022-08-11T01:56:39.744Z,7.50
2022-08-11T01:59:07.063Z,7.50
2022-08-11T02:01:33.445Z,6.50
2022-08-11T02:04:00.675Z,7.75
2022-08-11T02:06:27.073Z,7.00
2022-08-11T02:11:37.753Z,7.50
2022-08-11T02:14:04.250Z,9.00
2022-08-11T02:16:30.665Z,7.33
2022-08-11T02:18:57.909Z,8.50
2022-08-11T02:21:24.350Z,10.33
2022-08-11T02:26:35.391Z,8.50
2022-08-11T02:29:02.666Z,9.00
2022-08-11T02:32:14.871Z,9.00
2022-08-11T02:34:16.277Z,7.75
2022-08-11T02:36:42.712Z,9.67
2022-08-11T02:42:03.878Z,7.00
2022-08-11T02:44:31.172Z,7.50
2022-08-11T02:46:57.543Z,7.00
2022-08-11T02:49:24.781Z,7.75
2022-08-11T02:51:51.226Z,8.00
2022-08-11T02:57:03.349Z,7.50
2022-08-11T02:59:29.746Z,8.00
2022-08-11T03:02:00.605Z,7.00
2022-08-11T03:04:31.810Z,9.00
2022-08-11T03:07:04.883Z,11.33
2022-08-11T03:12:35.917Z,7.33
2022-08-11T03:15:02.434Z,9.00
2022-08-11T03:17:28.820Z,5.67
2022-08-11T03:19:56.064Z,8.00
2022-08-11T03:22:25.273Z,9.67
2022-08-11T03:27:47.477Z,9.75
2022-08-11T03:30:14.736Z,9.50
2022-08-11T03:32:41.991Z,10.25
2022-08-11T03:35:09.299Z,8.75
2022-08-11T03:37:39.247Z,14.14
2022-08-11T03:43:00.479Z,4.33
2022-08-11T03:45:27.253Z,9.00
2022-08-11T03:47:55.641Z,9.25
2022-08-11T03:50:23.150Z,8.50
2022-08-11T03:52:49.600Z,10.00
2022-08-11T03:58:00.111Z,9.00
2022-08-11T04:00:26.487Z,9.00
2022-08-11T04:02:52.864Z,8.67
2022-08-11T04:05:20.139Z,10.00
2022-08-11T04:07:46.537Z,9.00
2022-08-11T04:12:59.943Z,11.00
2022-08-11T04:15:27.241Z,7.25
2022-08-11T04:17:54.685Z,27.67
2022-08-11T04:20:22.121Z,22.00
2022-08-11T04:22:48.616Z,31.50
2022-08-11T04:28:10.970Z,30.00
2022-08-11T04:30:55.905Z,27.50
2022-08-11T04:33:24.218Z,24.50
2022-08-11T04:35:51.448Z,19.50
2022-08-11T04:38:18.926Z,22.50
2022-08-11T04:44:02.806Z,16.50
2022-08-11T04:46:25.946Z,13.50
2022-08-11T04:48:52.405Z,15.00
2022-08-11T04:51:18.863Z,15.00
2022-08-11T04:53:45.344Z,15.50
2022-08-11T04:59:05.233Z,10.67
2022-08-11T05:01:37.195Z,11.20
2022-08-11T05:04:04.075Z,10.50
2022-08-11T05:06:30.537Z,11.50
2022-08-11T05:08:56.966Z,10.50
2022-08-11T05:14:17.255Z,10.67
2022-08-11T05:16:46.459Z,9.83
2022-08-11T05:19:16.170Z,8.50
2022-08-11T05:21:45.661Z,8.80
2022-08-11T05:24:12.108Z,7.50
2022-08-11T05:29:25.068Z,9.60
2022-08-11T05:31:51.470Z,8.33
2022-08-11T05:34:17.864Z,8.50
2022-08-11T05:36:44.370Z,11.00
2022-08-11T05:39:13.590Z,10.33
2022-08-11T05:44:25.009Z,8.00
2022-08-11T05:46:51.389Z,7.33
2022-08-11T05:49:17.845Z,7.50
2022-08-11T05:51:55.006Z,7.75
2022-08-11T05:54:28.819Z,14.00
2022-08-11T05:59:39.833Z,10.00
2022-08-11T06:02:06.319Z,8.00
2022-08-11T06:04:32.761Z,8.00
2022-08-11T06:07:00.025Z,9.75
2022-08-11T06:09:26.396Z,7.00
2022-08-11T06:14:46.589Z,6.00
2022-08-11T06:17:12.990Z,7.50
2022-08-11T06:19:39.352Z,6.00
2022-08-11T06:22:06.609Z,8.25
2022-08-11T06:24:32.986Z,8.50
2022-08-11T06:29:54.703Z,7.75
2022-08-11T06:32:23.019Z,9.25
2022-08-11T06:34:49.376Z,6.33
2022-08-11T06:37:16.606Z,6.00
2022-08-11T06:39:43.885Z,6.25
2022-08-11T06:44:55.279Z,7.00
2022-08-11T06:47:24.443Z,7.17
2022-08-11T06:49:50.904Z,8.00
2022-08-11T06:52:34.804Z,9.00
2022-08-11T06:55:03.773Z,9.50
2022-08-11T06:57:31.327Z,8.00
2022-08-11T06:59:58.741Z,9.25
2022-08-11T07:02:27.996Z,7.00
2022-08-11T07:04:57.388Z,8.00
2022-08-11T07:07:23.773Z,7.33
2022-08-11T07:09:50.298Z,10.00
2022-08-11T07:15:11.669Z,8.75
2022-08-11T07:17:38.407Z,7.00
2022-08-11T07:20:04.807Z,8.00
2022-08-11T07:22:32.052Z,5.50
2022-08-11T07:25:03.102Z,6.00
2022-08-11T07:30:15.122Z,5.50
2022-08-11T07:32:41.756Z,5.00
2022-08-11T07:35:08.408Z,6.33
2022-08-11T07:37:34.826Z,4.00
2022-08-11T07:40:01.282Z,6.00
2022-08-11T07:45:12.724Z,4.75
2022-08-11T07:47:39.100Z,5.00
2022-08-11T07:50:05.489Z,4.33
2022-08-11T07:52:31.864Z,6.00
2022-08-11T07:55:01.045Z,9.67
2022-08-11T08:00:22.707Z,8.00
2022-08-11T08:02:56.324Z,6.00
2022-08-11T08:05:22.720Z,5.00
2022-08-11T08:07:49.961Z,5.00
2022-08-11T08:10:16.326Z,5.00
2022-08-11T08:15:37.623Z,5.00
2022-08-11T08:18:09.776Z,4.00
2022-08-11T08:20:50.536Z,6.67
2022-08-11T08:23:17.962Z,4.00
2022-08-11T08:25:44.329Z,4.00
2022-08-11T08:30:54.766Z,4.00
2022-08-11T08:33:21.152Z,3.00
2022-08-11T08:35:56.004Z,4.33
2022-08-11T08:38:22.646Z,5.00
2022-08-11T08:40:49.031Z,5.67
2022-08-11T08:45:59.308Z,4.33
2022-08-11T08:48:25.670Z,5.00
2022-08-11T08:50:52.114Z,4.33
2022-08-11T08:53:18.511Z,5.00
2022-08-11T08:55:45.609Z,4.33
2022-08-11T09:01:06.082Z,4.00
2022-08-11T09:04:04.807Z,4.00
2022-08-11T09:06:18.824Z,4.00
2022-08-11T09:08:45.620Z,5.00
2022-08-11T09:11:13.973Z,5.00
2022-08-11T09:16:34.380Z,3.33
2022-08-11T09:19:00.754Z,5.00
2022-08-11T09:21:49.307Z,4.00
2022-08-11T09:24:22.112Z,6.00
2022-08-11T09:26:51.327Z,4.33
2022-08-11T09:32:13.239Z,4.50
2022-08-11T09:34:39.636Z,4.00
2022-08-11T09:37:06.013Z,4.00
2022-08-11T09:39:32.637Z,3.00
2022-08-11T09:42:02.872Z,4.00
2022-08-11T09:47:39.535Z,3.67
2022-08-11T09:50:06.110Z,3.00
2022-08-11T09:52:32.493Z,4.00
2022-08-11T09:54:58.859Z,2.33
2022-08-11T09:57:25.205Z,2.00
2022-08-11T09:59:51.536Z,2.33
2022-08-11T10:02:18.653Z,3.00
2022-08-11T10:04:45.022Z,3.00
2022-08-11T10:07:11.453Z,3.00
2022-08-11T10:09:37.788Z,2.00
2022-08-11T10:12:04.142Z,2.33
2022-08-11T10:17:14.369Z,2.00
2022-08-11T10:19:40.721Z,3.00
2022-08-11T10:22:07.056Z,2.00
2022-08-11T10:24:33.410Z,2.00
2022-08-11T10:27:00.283Z,2.00
2022-08-11T10:32:20.758Z,3.33
2022-08-11T10:34:56.325Z,3.00
2022-08-11T10:37:24.460Z,5.00
2022-08-11T10:40:10.857Z,3.00
2022-08-11T10:42:57.554Z,3.67
2022-08-11T10:45:23.597Z,2.00
2022-08-11T10:47:49.981Z,3.33
2022-08-11T10:50:16.383Z,3.00
2022-08-11T10:52:42.832Z,5.00
2022-08-11T10:55:10.074Z,4.00
2022-08-11T10:57:36.510Z,3.33
2022-08-11T11:00:02.924Z,4.00
2022-08-11T11:02:29.296Z,4.00
2022-08-11T11:04:55.710Z,4.00
2022-08-11T11:07:22.052Z,3.00
2022-08-11T11:09:48.386Z,4.00
2022-08-11T11:12:15.629Z,4.00
2022-08-11T11:17:26.044Z,3.67
2022-08-11T11:19:52.426Z,3.67
2022-08-11T11:22:18.762Z,4.00
2022-08-11T11:24:45.121Z,3.00
2022-08-11T11:27:12.355Z,3.25
2022-08-11T11:32:22.598Z,3.00
2022-08-11T11:34:53.476Z,3.00
2022-08-11T11:37:21.274Z,3.00
2022-08-11T11:39:50.519Z,4.00
2022-08-11T11:42:16.909Z,3.33
2022-08-11T11:47:37.059Z,4.00
2022-08-11T11:50:03.449Z,3.00
2022-08-11T11:52:29.896Z,3.00
2022-08-11T11:54:56.352Z,5.00
2022-08-11T11:57:22.723Z,4.00
2022-08-11T12:02:42.897Z,3.00
2022-08-11T12:05:10.304Z,4.00
2022-08-11T12:07:36.689Z,3.00
2022-08-11T12:10:03.072Z,3.00
2022-08-11T12:12:29.456Z,3.67
2022-08-11T12:17:39.793Z,3.67
2022-08-11T12:20:06.368Z,2.67
2022-08-11T12:22:52.813Z,3.67
2022-08-11T12:25:19.186Z,4.00
2022-08-11T12:27:45.530Z,3.00
2022-08-11T12:33:05.836Z,3.00
2022-08-11T12:35:32.218Z,3.00
2022-08-11T12:38:04.781Z,3.00
2022-08-11T12:40:43.278Z,3.67
2022-08-11T12:43:24.332Z,3.00
2022-08-11T12:49:03.582Z,4.67
2022-08-11T12:51:30.242Z,4.00
2022-08-11T12:54:16.618Z,4.00
2022-08-11T12:56:42.976Z,4.33
2022-08-11T12:59:10.209Z,4.00
2022-08-11T13:01:36.608Z,4.00
2022-08-11T13:04:02.975Z,4.00
2022-08-11T13:06:29.325Z,3.00
2022-08-11T13:08:59.063Z,4.00
2022-08-11T13:11:57.059Z,3.67
2022-08-11T13:14:15.204Z,4.00
2022-08-11T13:16:41.891Z,4.00
2022-08-11T13:19:08.263Z,5.00
2022-08-11T13:21:34.612Z,3.33
2022-08-11T13:24:03.401Z,3.00
2022-08-11T13:26:45.037Z,3.00
2022-08-11T13:29:16.246Z,3.33
2022-08-11T13:31:42.619Z,4.00
2022-08-11T13:34:09.090Z,2.33
2022-08-11T13:36:36.124Z,2.67
2022-08-11T13:39:02.475Z,2.33
2022-08-11T13:41:28.823Z,3.00
2022-08-11T13:43:55.144Z,4.00
2022-08-11T13:49:16.498Z,4.75
2022-08-11T13:51:42.864Z,3.00
2022-08-11T13:54:10.092Z,4.00
2022-08-11T13:56:36.471Z,4.00
2022-08-11T13:59:02.822Z,3.00
2022-08-11T14:04:31.275Z,4.00
2022-08-11T14:06:58.678Z,4.00
2022-08-11T14:09:26.479Z,4.00
2022-08-11T14:12:23.160Z,4.67
2022-08-11T14:14:39.222Z,4.33
2022-08-11T14:17:05.582Z,4.00
2022-08-11T14:19:31.958Z,4.00
2022-08-11T14:21:58.386Z,4.00
2022-08-11T14:24:24.727Z,4.00
2022-08-11T14:26:51.109Z,3.00
2022-08-11T14:29:17.546Z,6.00
2022-08-11T14:34:27.684Z,4.00
2022-08-11T14:36:54.055Z,4.00
2022-08-11T14:39:20.512Z,4.67
2022-08-11T14:42:11.844Z,5.00
2022-08-11T14:44:33.429Z,5.33
2022-08-11T14:49:58.195Z,3.67
2022-08-11T14:52:30.243Z,4.00
2022-08-11T14:54:56.607Z,4.00
2022-08-11T14:57:55.896Z,3.00
2022-08-11T15:00:10.182Z,3.75
2022-08-11T15:02:37.980Z,3.00
2022-08-11T15:05:04.367Z,4.00
2022-08-11T15:07:30.732Z,4.00
2022-08-11T15:10:12.342Z,5.00
2022-08-11T15:12:39.712Z,3.33
2022-08-11T15:15:06.111Z,3.00
2022-08-11T15:20:16.712Z,4.67
2022-08-11T15:22:43.058Z,4.00
2022-08-11T15:25:09.435Z,4.00
2022-08-11T15:27:35.839Z,5.00
2022-08-11T15:30:02.196Z,3.00
2022-08-11T15:35:22.727Z,5.00
2022-08-11T15:37:49.069Z,4.00
2022-08-11T15:40:31.373Z,4.00
2022-08-11T15:42:59.590Z,4.00
2022-08-11T15:45:25.903Z,4.00
2022-08-11T15:50:36.238Z,3.67
2022-08-11T15:53:02.581Z,4.00
2022-08-11T15:55:28.951Z,5.00
2022-08-11T15:57:55.321Z,4.00
2022-08-11T16:00:24.387Z,4.00
2022-08-11T16:05:46.563Z,4.33
2022-08-11T16:08:26.029Z,4.00
2022-08-11T16:10:59.400Z,4.00
2022-08-11T16:13:25.780Z,4.00
2022-08-11T16:15:52.152Z,4.33
2022-08-11T16:21:34.095Z,3.67
2022-08-11T16:23:59.188Z,4.00
2022-08-11T16:27:08.361Z,4.00
2022-08-11T16:29:11.918Z,4.33
2022-08-11T16:31:38.353Z,4.00
2022-08-11T16:34:04.752Z,4.67
2022-08-11T16:36:31.093Z,4.67
2022-08-11T16:38:57.486Z,4.00
2022-08-11T16:41:23.816Z,3.00
2022-08-11T16:43:50.172Z,4.67
2022-08-11T16:46:16.528Z,4.00
2022-08-11T16:48:43.099Z,5.00
2022-08-11T16:51:09.688Z,3.00
2022-08-11T16:53:59.834Z,4.67
2022-08-11T16:56:22.395Z,5.00
2022-08-11T16:58:48.845Z,5.00
2022-08-11T17:01:15.280Z,4.00
2022-08-11T17:06:25.452Z,4.33
2022-08-11T17:08:56.892Z,4.00
2022-08-11T17:11:23.703Z,4.33
2022-08-11T17:13:50.068Z,4.00
2022-08-11T17:16:16.457Z,5.00
2022-08-11T17:21:26.920Z,5.00
2022-08-11T17:23:53.271Z,3.67
2022-08-11T17:26:20.492Z,5.00
2022-08-11T17:28:46.869Z,4.00
2022-08-11T17:31:21.814Z,4.67
2022-08-11T17:36:45.541Z,4.33
2022-08-11T17:39:13.438Z,5.00
2022-08-11T17:41:39.891Z,4.00
2022-08-11T17:44:06.306Z,4.33
2022-08-11T17:46:32.684Z,4.33
2022-08-11T17:51:43.178Z,19.50
2022-08-11T17:54:24.705Z,42.67
2022-08-11T17:56:53.484Z,48.67
2022-08-11T17:59:21.711Z,47.00
2022-08-11T18:01:51.384Z,44.33
2022-08-11T18:07:51.824Z,37.50
2022-08-11T18:10:19.232Z,35.50
2022-08-11T18:12:45.728Z,27.50
2022-08-11T18:15:13.109Z,20.00
2022-08-11T18:17:40.871Z,17.00
2022-08-11T18:20:08.470Z,15.00
2022-08-11T18:22:35.715Z,8.00
2022-08-11T18:25:02.074Z,6.33
2022-08-11T18:27:28.438Z,7.00
2022-08-11T18:29:56.748Z,10.40
2022-08-11T18:32:30.009Z,7.33
2022-08-11T18:35:06.089Z,7.67
2022-08-11T18:37:32.445Z,7.00
2022-08-11T18:39:59.714Z,8.25
2022-08-11T18:42:29.019Z,8.50
2022-08-11T18:44:56.352Z,6.00
2022-08-11T18:47:24.057Z,9.00
2022-08-11T18:50:03.940Z,7.00
2022-08-11T18:52:32.071Z,5.33
2022-08-11T18:54:58.426Z,5.33
2022-08-11T18:57:25.672Z,7.50
2022-08-11T18:59:52.061Z,7.00
2022-08-11T19:02:19.317Z,8.25
2022-08-11T19:07:39.486Z,8.67
2022-08-11T19:10:05.887Z,7.33
2022-08-11T19:12:33.521Z,7.00
2022-08-11T19:14:59.989Z,7.00
2022-08-11T19:17:43.611Z,7.75
2022-08-11T19:23:07.413Z,7.67
2022-08-11T19:25:33.847Z,6.00
2022-08-11T19:28:00.305Z,8.00
2022-08-11T19:30:26.687Z,8.00
2022-08-11T19:32:53.089Z,7.00
2022-08-11T19:35:19.459Z,7.67
2022-08-11T19:37:45.871Z,6.67
2022-08-11T19:40:13.140Z,7.75
2022-08-11T19:42:39.831Z,5.33
2022-08-11T19:45:06.370Z,9.00
2022-08-11T19:47:32.744Z,8.00
2022-08-11T19:52:53.119Z,7.67
2022-08-11T19:55:22.304Z,8.67
2022-08-11T19:57:48.682Z,8.00
2022-08-11T20:00:15.941Z,9.25
2022-08-11T20:02:42.410Z,11.00
2022-08-11T20:07:53.379Z,8.00
2022-08-11T20:10:20.630Z,8.00
2022-08-11T20:12:47.876Z,8.75
2022-08-11T20:15:14.244Z,6.00
2022-08-11T20:17:40.617Z,8.00
2022-08-11T20:23:01.921Z,8.50
2022-08-11T20:25:29.289Z,8.00
2022-08-11T20:27:55.765Z,7.00
2022-08-11T20:30:23.043Z,9.00
2022-08-11T20:32:49.467Z,9.00
2022-08-11T20:38:13.626Z,9.00
2022-08-11T20:40:40.233Z,8.00
2022-08-11T20:43:06.629Z,8.50
2022-08-11T20:45:57.209Z,10.00
2022-08-11T20:48:23.791Z,9.00
2022-08-11T20:53:45.380Z,9.00
2022-08-11T20:56:13.731Z,10.00
2022-08-11T20:59:14.055Z,9.50
2022-08-11T21:01:38.326Z,9.17
2022-08-11T21:04:05.561Z,8.00
2022-08-11T21:06:33.040Z,8.00
2022-08-11T21:08:59.526Z,9.33
2022-08-11T21:11:28.210Z,9.25
2022-08-11T21:13:54.601Z,8.00
2022-08-11T21:16:25.229Z,8.50
2022-08-11T21:18:55.042Z,8.33
2022-08-11T21:21:24.205Z,8.17
2022-08-11T21:23:52.321Z,9.00
2022-08-11T21:26:18.768Z,8.00
2022-08-11T21:28:46.012Z,8.25
2022-08-11T21:31:13.254Z,8.00
2022-08-11T21:33:39.678Z,9.00
2022-08-11T21:39:00.695Z,8.00
2022-08-11T21:41:27.085Z,7.67
2022-08-11T21:43:53.464Z,7.00
2022-08-11T21:46:19.845Z,7.00
2022-08-11T21:48:46.229Z,7.33
2022-08-11T21:53:57.464Z,7.00
2022-08-11T21:56:27.273Z,6.00
2022-08-11T21:58:54.062Z,6.33
2022-08-11T22:01:20.470Z,5.33
2022-08-11T22:03:50.338Z,6.67
2022-08-11T22:09:01.651Z,6.00
2022-08-11T22:11:31.700Z,5.33
2022-08-11T22:14:05.767Z,6.67
2022-08-11T22:16:35.358Z,7.00
2022-08-11T22:19:01.745Z,7.00
2022-08-11T22:24:12.820Z,6.00
2022-08-11T22:26:47.646Z,7.67
2022-08-11T22:29:15.074Z,6.25
2022-08-11T22:31:42.332Z,8.75
2022-08-11T22:34:08.818Z,9.00
2022-08-11T22:39:29.352Z,9.00
2022-08-11T22:42:01.926Z,10.00
2022-08-11T22:44:29.214Z,9.00
2022-08-11T22:46:55.707Z,9.00
2022-08-11T22:49:23.003Z,8.50
2022-08-11T22:54:44.381Z,9.67
2022-08-11T22:57:10.824Z,8.00
2022-08-11T22:59:38.124Z,7.50
2022-08-11T23:02:04.644Z,7.67
2022-08-11T23:04:31.156Z,9.50
2022-08-11T23:09:45.260Z,9.50
2022-08-11T23:12:11.872Z,9.00
2022-08-11T23:14:38.350Z,8.50
2022-08-11T23:17:04.855Z,9.50
2022-08-11T23:20:12.053Z,9.00
2022-08-11T23:25:02.329Z,8.00
2022-08-11T23:27:28.781Z,8.00
2022-08-11T23:29:55.303Z,9.50
2022-08-11T23:32:21.719Z,7.67
2022-08-11T23:35:03.855Z,9.33
2022-08-11T23:40:28.555Z,8.00
2022-08-11T23:42:55.056Z,8.67
2022-08-11T23:45:23.215Z,9.00
2022-08-11T23:47:51.492Z,9.00
2022-08-11T23:50:18.051Z,10.00
2022-08-11T23:55:28.556Z,8.33
2022-08-11T23:57:55.039Z,10.00
